Time;durP1;ratioP1;P1;durP2;ratioP2;P2;SDS_P1;SDS_P2;PMS_P1;PMS_P2;Temp;Humidity;BMP_temperature;BMP_pressure;BME280_temperature;BME280_humidity;BME280_pressure;Samples;Min_cycle;Max_cycle;Signal;HPM_P1;HPM_P2
2023/05/16 00:00:52;;;;;;;3.33;1.50;;;12.40;74.20;;;;;;5039187;28;20021;-64
2023/05/16 00:03:18;;;;;;;3.10;1.10;;;12.40;74.30;;;;;;5026646;28;20161;-64
2023/05/16 00:05:45;;;;;;;2.03;1.17;;;12.30;74.30;;;;;;5026686;28;20472;-64
2023/05/16 00:08:11;;;;;;;1.40;0.70;;;12.30;74.50;;;;;;5028565;28;20524;-64
2023/05/16 00:10:37;;;;;;;3.40;0.52;;;12.20;74.50;;;;;;5039230;28;20067;-59
2023/05/16 00:13:03;;;;;;;2.17;0.82;;;12.30;74.60;;;;;;5028508;28;20102;-64
2023/05/16 00:15:30;;;;;;;8.05;1.17;;;12.30;74.50;;;;;;5028283;28;20037;-64
2023/05/16 00:17:58;;;;;;;4.75;0.75;;;12.30;74.50;;;;;;5026940;28;20136;-60
2023/05/16 00:20:26;;;;;;;2.35;0.70;;;12.30;74.30;;;;;;5027164;28;20366;-64
2023/05/16 00:22:52;;;;;;;2.65;1.20;;;12.30;74.30;;;;;;5039033;28;20025;-64
2023/05/16 00:25:18;;;;;;;0.55;0.50;;;12.30;74.20;;;;;;5027301;28;20025;-64
2023/05/16 00:27:44;;;;;;;1.90;1.20;;;12.30;74.10;;;;;;5027170;28;20056;-64
2023/05/16 00:30:10;;;;;;;1.45;0.90;;;12.30;74.00;;;;;;5028783;28;20461;-64
2023/05/16 00:32:36;;;;;;;2.42;0.95;;;12.20;74.00;;;;;;5030906;28;20038;-64
2023/05/16 00:35:02;;;;;;;0.77;0.40;;;12.20;74.10;;;;;;5027094;28;20040;-64
2023/05/16 00:37:28;;;;;;;0.63;0.57;;;12.20;74.00;;;;;;5037346;28;20444;-64
2023/05/16 00:39:53;;;;;;;1.27;0.98;;;12.20;74.00;;;;;;5030089;28;20078;-64
2023/05/16 00:42:20;;;;;;;2.45;0.95;;;12.20;73.90;;;;;;5039223;28;20033;-64
2023/05/16 00:44:46;;;;;;;2.58;0.88;;;12.20;74.00;;;;;;5027063;28;20408;-64
2023/05/16 00:47:12;;;;;;;2.75;1.25;;;12.10;74.00;;;;;;5039863;28;20082;-64
2023/05/16 00:49:38;;;;;;;3.33;0.73;;;12.10;74.00;;;;;;5034897;28;20041;-64
2023/05/16 00:52:04;;;;;;;0.82;0.70;;;12.10;73.90;;;;;;5035546;28;20029;-64
2023/05/16 00:54:30;;;;;;;3.95;0.95;;;12.10;74.50;;;;;;5028586;28;20033;-64
2023/05/16 00:56:56;;;;;;;1.23;0.60;;;12.00;73.60;;;;;;5030882;28;20048;-64
2023/05/16 00:59:25;;;;;;;1.10;0.70;;;12.00;73.70;;;;;;5033611;28;20038;-64
2023/05/16 01:01:51;;;;;;;3.97;1.02;;;11.90;73.70;;;;;;5042402;28;20029;-64
2023/05/16 01:04:18;;;;;;;2.22;0.90;;;11.90;73.80;;;;;;5030468;28;20401;-64
2023/05/16 01:06:44;;;;;;;1.90;0.77;;;11.90;73.60;;;;;;5031109;28;20083;-64
2023/05/16 01:09:11;;;;;;;2.05;0.57;;;11.80;73.40;;;;;;5030670;28;20088;-64
2023/05/16 01:12:08;;;;;;;3.20;0.90;;;11.80;73.50;;;;;;5032682;28;20520;-64
2023/05/16 01:15:14;;;;;;;1.88;0.63;;;11.80;73.50;;;;;;5033444;28;20511;-64
2023/05/16 01:18:13;;;;;;;2.25;0.90;;;11.80;73.60;;;;;;5039237;28;20083;-64
2023/05/16 01:20:48;;;;;;;3.10;1.05;;;11.70;73.60;;;;;;5032324;28;20037;-59
2023/05/16 01:23:33;;;;;;;3.63;0.50;;;11.60;73.70;;;;;;5032130;28;20025;-64
2023/05/16 01:26:18;;;;;;;1.83;0.95;;;11.60;73.50;;;;;;5031503;28;20025;-64
2023/05/16 01:28:45;;;;;;;3.25;0.98;;;11.60;73.50;;;;;;5032044;28;20026;-64
2023/05/16 01:31:11;;;;;;;0.75;0.40;;;11.50;73.50;;;;;;5027628;28;20033;-64
2023/05/16 01:33:37;;;;;;;1.27;0.65;;;11.50;73.50;;;;;;5033266;28;20086;-65
2023/05/16 01:36:10;;;;;;;0.90;0.57;;;11.50;73.50;;;;;;5034368;28;20037;-64
2023/05/16 01:38:51;;;;;;;1.65;0.60;;;11.50;73.50;;;;;;5044974;28;20043;-59
2023/05/16 01:41:26;;;;;;;0.85;0.60;;;11.50;73.50;;;;;;5030256;28;20058;-64
2023/05/16 01:43:59;;;;;;;1.38;0.57;;;11.50;73.50;;;;;;5042361;28;20026;-64
2023/05/16 01:46:28;;;;;;;2.90;0.80;;;11.40;73.40;;;;;;5032211;28;20108;-59
2023/05/16 01:49:21;;;;;;;0.82;0.82;;;11.40;73.50;;;;;;5034541;28;20116;-59
2023/05/16 01:51:57;;;;;;;5.75;1.15;;;11.30;73.50;;;;;;5029594;28;20108;-64
2023/05/16 01:54:28;;;;;;;0.85;0.65;;;11.30;73.60;;;;;;5031425;28;20025;-65
2023/05/16 01:56:55;;;;;;;0.77;0.50;;;11.20;73.70;;;;;;5035360;28;20388;-65
2023/05/16 01:59:23;;;;;;;1.55;0.77;;;11.20;73.70;;;;;;5028249;28;20045;-60
2023/05/16 02:01:52;;;;;;;3.20;0.88;;;11.20;73.60;;;;;;5033997;28;20104;-60
2023/05/16 02:04:18;;;;;;;4.60;0.70;;;11.20;73.40;;;;;;5032332;28;20419;-59
2023/05/16 02:06:44;;;;;;;2.85;1.13;;;11.20;73.40;;;;;;5039918;28;20040;-59
2023/05/16 02:09:09;;;;;;;1.58;1.10;;;11.20;73.40;;;;;;5040155;28;20059;-60
2023/05/16 02:11:35;;;;;;;5.00;1.30;;;11.10;73.30;;;;;;5033060;28;20037;-60
2023/05/16 02:14:01;;;;;;;1.30;0.73;;;11.10;73.40;;;;;;5031884;28;20057;-65
2023/05/16 02:16:28;;;;;;;1.20;0.60;;;11.10;73.60;;;;;;5031044;28;20029;-65
2023/05/16 02:18:54;;;;;;;0.73;0.57;;;11.10;73.50;;;;;;5032886;28;20029;-65
2023/05/16 02:21:19;;;;;;;5.97;1.05;;;11.10;73.50;;;;;;5028657;28;20042;-65
2023/05/16 02:23:45;;;;;;;2.35;0.95;;;11.10;73.30;;;;;;5037758;28;20037;-65
2023/05/16 02:26:11;;;;;;;1.52;0.70;;;11.00;73.10;;;;;;5039130;28;20029;-65
2023/05/16 02:28:37;;;;;;;0.38;0.38;;;11.00;73.10;;;;;;5029848;28;20106;-65
2023/05/16 02:31:03;;;;;;;3.60;1.17;;;11.00;73.00;;;;;;5042280;28;20392;-65
2023/05/16 02:33:28;;;;;;;0.65;0.52;;;11.00;72.90;;;;;;5028446;28;20468;-65
2023/05/16 02:35:54;;;;;;;1.58;0.70;;;11.00;73.00;;;;;;5032609;28;20033;-65
2023/05/16 02:38:20;;;;;;;1.30;0.68;;;11.00;73.00;;;;;;5028199;28;20037;-65
2023/05/16 02:40:47;;;;;;;1.90;1.10;;;11.00;73.00;;;;;;5034160;28;20378;-60
2023/05/16 02:43:13;;;;;;;2.17;0.98;;;11.00;73.10;;;;;;5037398;28;20417;-59
2023/05/16 02:45:38;;;;;;;3.13;0.93;;;11.00;73.10;;;;;;5035250;28;20036;-64
2023/05/16 02:48:04;;;;;;;3.92;0.77;;;11.00;73.10;;;;;;5034639;28;20087;-67
2023/05/16 02:50:30;;;;;;;2.20;0.77;;;11.00;73.00;;;;;;5027978;28;20037;-68
2023/05/16 02:52:58;;;;;;;1.98;0.50;;;10.90;73.00;;;;;;5013830;28;20041;-67
2023/05/16 02:55:24;;;;;;;5.68;0.52;;;10.90;73.00;;;;;;5035179;28;20041;-66
2023/05/16 02:57:51;;;;;;;2.63;1.30;;;10.90;73.20;;;;;;5028751;28;20048;-68
2023/05/16 03:00:17;;;;;;;1.95;0.70;;;10.80;73.10;;;;;;5007387;28;20030;-67
2023/05/16 03:02:44;;;;;;;2.30;0.70;;;10.80;73.30;;;;;;5009882;28;20041;-65
2023/05/16 03:05:10;;;;;;;0.88;0.73;;;10.70;73.30;;;;;;5012165;28;20034;-65
2023/05/16 03:07:36;;;;;;;1.15;0.60;;;10.70;73.40;;;;;;5013267;28;20037;-64
2023/05/16 03:10:02;;;;;;;0.73;0.32;;;10.70;73.50;;;;;;5015247;28;20034;-65
2023/05/16 03:12:28;;;;;;;1.63;0.70;;;10.70;73.60;;;;;;5015305;28;20029;-65
2023/05/16 03:14:54;;;;;;;0.73;0.40;;;10.60;73.60;;;;;;5008389;28;20432;-65
2023/05/16 03:17:20;;;;;;;5.82;0.93;;;10.60;73.70;;;;;;5008044;28;20030;-65
2023/05/16 03:19:45;;;;;;;1.85;1.15;;;10.60;73.60;;;;;;5011926;28;20045;-65
2023/05/16 03:22:11;;;;;;;6.10;0.70;;;10.60;73.70;;;;;;5010371;28;20034;-65
2023/05/16 03:24:37;;;;;;;0.85;0.57;;;10.60;73.80;;;;;;5005642;28;20038;-66
2023/05/16 03:27:03;;;;;;;2.17;0.57;;;10.60;73.80;;;;;;5006500;28;20036;-64
2023/05/16 03:29:29;;;;;;;3.40;1.05;;;10.50;73.90;;;;;;5007708;28;20041;-65
2023/05/16 03:31:56;;;;;;;2.58;0.80;;;10.50;73.90;;;;;;5006538;28;20036;-65
2023/05/16 03:34:21;;;;;;;0.88;0.60;;;10.50;74.10;;;;;;4998908;28;20041;-64
2023/05/16 03:36:48;;;;;;;1.85;1.00;;;10.40;74.10;;;;;;5002300;28;20050;-65
2023/05/16 03:39:15;;;;;;;2.47;0.73;;;10.40;74.20;;;;;;5009113;28;20026;-65
2023/05/16 03:41:41;;;;;;;2.35;0.70;;;10.40;74.30;;;;;;5001142;28;20488;-65
2023/05/16 03:44:06;;;;;;;2.13;1.20;;;10.40;74.30;;;;;;5007681;28;20038;-65
2023/05/16 03:46:32;;;;;;;1.02;0.60;;;10.40;74.30;;;;;;5010263;28;20030;-64
2023/05/16 03:48:58;;;;;;;4.38;1.00;;;10.50;74.40;;;;;;5010803;28;20073;-65
2023/05/16 03:51:23;;;;;;;1.08;0.85;;;10.50;74.50;;;;;;5012382;28;20037;-65
2023/05/16 03:53:49;;;;;;;3.47;0.70;;;10.50;74.60;;;;;;5015563;28;20030;-65
2023/05/16 03:56:15;;;;;;;2.10;0.50;;;10.50;74.50;;;;;;5009451;28;20065;-60
2023/05/16 03:58:41;;;;;;;1.50;0.98;;;10.60;74.70;;;;;;5018318;28;20049;-59
2023/05/16 04:01:08;;;;;;;5.70;1.40;;;10.60;74.50;;;;;;5035162;28;20052;-65
2023/05/16 04:03:33;;;;;;;0.95;0.70;;;10.70;74.50;;;;;;5030098;28;20026;-65
2023/05/16 04:05:59;;;;;;;3.00;0.90;;;10.70;74.50;;;;;;5036115;28;20391;-66
2023/05/16 04:08:25;;;;;;;3.33;1.13;;;10.80;74.40;;;;;;5031857;28;20404;-65
2023/05/16 04:10:51;;;;;;;0.45;0.35;;;10.80;74.50;;;;;;5035761;28;20103;-65
2023/05/16 04:13:16;;;;;;;1.75;0.35;;;10.80;74.30;;;;;;5032431;28;20443;-60
2023/05/16 04:15:42;;;;;;;2.13;0.65;;;10.80;74.30;;;;;;5030341;28;20055;-59
2023/05/16 04:18:09;;;;;;;4.20;1.05;;;10.90;74.40;;;;;;5032122;28;20041;-60
2023/05/16 04:20:35;;;;;;;3.50;1.00;;;10.90;74.50;;;;;;5028656;28;20053;-65
2023/05/16 04:23:01;;;;;;;2.63;0.52;;;10.90;74.50;;;;;;5033694;28;20376;-65
2023/05/16 04:25:27;;;;;;;1.48;0.88;;;11.00;74.60;;;;;;5032464;28;20033;-65
2023/05/16 04:27:52;;;;;;;2.15;0.90;;;11.00;74.30;;;;;;5028123;28;20040;-65
2023/05/16 04:30:18;;;;;;;1.92;0.60;;;11.00;74.20;;;;;;5028175;28;20033;-60
2023/05/16 04:32:44;;;;;;;1.00;0.43;;;11.00;74.70;;;;;;5036628;28;20358;-60
2023/05/16 04:35:10;;;;;;;2.00;0.68;;;11.10;74.20;;;;;;5035535;28;20405;-60
2023/05/16 04:37:36;;;;;;;3.28;0.68;;;11.10;74.10;;;;;;5033995;28;20781;-60
2023/05/16 04:40:02;;;;;;;6.25;0.90;;;11.20;74.10;;;;;;5036653;28;20487;-60
2023/05/16 04:42:28;;;;;;;1.95;0.75;;;11.20;73.80;;;;;;5033147;28;20076;-60
2023/05/16 04:44:55;;;;;;;1.50;0.47;;;11.20;74.00;;;;;;5030214;28;20034;-60
2023/05/16 04:47:20;;;;;;;1.48;0.70;;;11.20;74.00;;;;;;5031639;28;20061;-60
2023/05/16 04:49:46;;;;;;;0.65;0.60;;;11.20;74.10;;;;;;5033295;28;20064;-60
2023/05/16 04:52:12;;;;;;;0.57;0.45;;;11.20;74.70;;;;;;5034886;28;20124;-60
2023/05/16 04:54:38;;;;;;;6.82;1.05;;;11.20;74.10;;;;;;5008267;28;20033;-60
2023/05/16 04:57:04;;;;;;;1.80;0.90;;;11.20;74.20;;;;;;5024760;28;20041;-60
2023/05/16 04:59:30;;;;;;;1.27;0.90;;;11.20;74.30;;;;;;5022523;28;20061;-60
2023/05/16 05:01:56;;;;;;;0.98;0.63;;;11.30;74.30;;;;;;5021583;28;20034;-60
2023/05/16 05:04:22;;;;;;;1.90;0.80;;;11.30;74.30;;;;;;5005231;28;20037;-60
2023/05/16 05:06:48;;;;;;;0.77;0.73;;;11.40;74.30;;;;;;5032140;28;20013;-60
2023/05/16 05:09:13;;;;;;;3.00;0.75;;;11.50;74.40;;;;;;5027118;28;20082;-67
2023/05/16 05:11:39;;;;;;;1.63;0.60;;;11.60;74.10;;;;;;5027812;28;20037;-60
2023/05/16 05:14:05;;;;;;;1.13;0.88;;;11.60;73.90;;;;;;5027583;28;20049;-60
2023/05/16 05:16:30;;;;;;;2.88;0.95;;;11.60;73.90;;;;;;5037072;28;20475;-60
2023/05/16 05:18:56;;;;;;;0.73;0.63;;;11.60;74.10;;;;;;5032699;28;20041;-60
2023/05/16 05:21:24;;;;;;;4.95;1.17;;;11.70;74.00;;;;;;5026385;28;20535;-60
2023/05/16 05:23:50;;;;;;;1.48;0.60;;;11.80;73.90;;;;;;5033886;28;20147;-60
2023/05/16 05:26:16;;;;;;;1.02;0.60;;;11.80;74.00;;;;;;5024441;28;20459;-61
2023/05/16 05:28:42;;;;;;;0.85;0.50;;;11.80;74.00;;;;;;5032360;28;20495;-61
2023/05/16 05:31:08;;;;;;;4.57;1.00;;;11.80;74.00;;;;;;5039391;28;20071;-60
2023/05/16 05:33:33;;;;;;;2.38;0.77;;;11.90;74.00;;;;;;5025814;28;20136;-61
2023/05/16 05:35:59;;;;;;;0.68;0.47;;;11.90;73.90;;;;;;5032138;28;20507;-66
2023/05/16 05:38:25;;;;;;;1.98;0.73;;;12.00;73.80;;;;;;5042412;28;20124;-66
2023/05/16 05:40:51;;;;;;;0.85;0.40;;;12.10;73.60;;;;;;5032747;28;20029;-66
2023/05/16 05:43:16;;;;;;;1.35;0.80;;;12.10;73.40;;;;;;5038644;28;20081;-66
2023/05/16 05:45:43;;;;;;;7.28;1.13;;;12.20;73.00;;;;;;5029889;28;20402;-66
2023/05/16 05:48:09;;;;;;;7.72;1.50;;;12.20;72.90;;;;;;5039491;28;20432;-67
2023/05/16 05:50:36;;;;;;;0.40;0.40;;;12.20;72.90;;;;;;5016054;28;20411;-60
2023/05/16 05:53:02;;;;;;;2.47;0.85;;;12.20;72.80;;;;;;5030048;28;20120;-61
2023/05/16 05:55:28;;;;;;;0.70;0.65;;;12.20;72.80;;;;;;5037943;28;20152;-60
2023/05/16 05:57:54;;;;;;;0.57;0.40;;;12.20;72.50;;;;;;5030145;28;20124;-66
2023/05/16 06:00:21;;;;;;;0.47;0.40;;;12.20;72.60;;;;;;5036051;28;20064;-66
2023/05/16 06:02:47;;;;;;;1.75;0.90;;;12.30;72.70;;;;;;5032173;28;20029;-66
2023/05/16 06:05:13;;;;;;;2.65;1.50;;;12.30;72.70;;;;;;5033170;28;20038;-61
2023/05/16 06:07:38;;;;;;;0.40;0.40;;;12.20;72.50;;;;;;5034537;28;20037;-61
2023/05/16 06:10:05;;;;;;;0.80;0.43;;;12.20;72.60;;;;;;5037010;28;20044;-62
2023/05/16 06:12:30;;;;;;;0.90;0.80;;;12.20;72.40;;;;;;5034113;28;20451;-61
2023/05/16 06:14:56;;;;;;;2.70;1.02;;;12.20;72.40;;;;;;5036205;28;20040;-61
2023/05/16 06:17:22;;;;;;;1.45;0.63;;;12.20;72.40;;;;;;5034809;28;20033;-61
2023/05/16 06:19:47;;;;;;;2.88;0.60;;;12.20;72.30;;;;;;5037571;28;20032;-61
2023/05/16 06:22:13;;;;;;;5.75;1.00;;;12.20;72.10;;;;;;5035479;28;20110;-67
2023/05/16 06:24:39;;;;;;;2.05;0.70;;;12.30;72.10;;;;;;5033883;28;20053;-67
2023/05/16 06:27:06;;;;;;;2.67;0.80;;;12.30;72.00;;;;;;5019107;28;20629;-67
2023/05/16 06:29:31;;;;;;;4.78;0.90;;;12.40;71.80;;;;;;5029383;28;20030;-67
2023/05/16 06:31:57;;;;;;;6.38;1.15;;;12.30;71.70;;;;;;5033265;28;20026;-67
2023/05/16 06:34:26;;;;;;;5.05;0.95;;;12.30;71.60;;;;;;5029187;28;20152;-69
2023/05/16 06:36:55;;;;;;;0.93;0.68;;;12.30;71.80;;;;;;5029818;28;20043;-63
2023/05/16 06:39:21;;;;;;;2.47;0.68;;;12.30;71.90;;;;;;5031079;28;20025;-63
2023/05/16 06:41:47;;;;;;;1.17;0.75;;;12.30;72.50;;;;;;5032156;28;20380;-62
2023/05/16 06:44:12;;;;;;;2.28;0.65;;;12.40;71.90;;;;;;5035324;28;20100;-63
2023/05/16 06:46:38;;;;;;;0.80;0.50;;;12.50;71.90;;;;;;5040767;28;20037;-72
2023/05/16 06:49:04;;;;;;;0.50;0.50;;;12.60;71.70;;;;;;5035968;28;20037;-71
2023/05/16 06:51:30;;;;;;;2.10;0.82;;;12.60;71.70;;;;;;5037396;28;20051;-71
2023/05/16 06:53:56;;;;;;;2.85;1.23;;;12.60;71.60;;;;;;5029180;28;20033;-69
2023/05/16 06:56:22;;;;;;;1.27;0.50;;;12.60;71.70;;;;;;5030324;28;20037;-62
2023/05/16 06:58:48;;;;;;;0.88;0.50;;;12.70;71.60;;;;;;5035553;28;20653;-62
2023/05/16 07:01:15;;;;;;;0.85;0.55;;;12.70;71.40;;;;;;5033284;28;20038;-62
2023/05/16 07:03:41;;;;;;;5.25;0.85;;;12.80;71.30;;;;;;5032080;28;20056;-63
2023/05/16 07:06:06;;;;;;;0.65;0.47;;;12.80;71.20;;;;;;5026152;28;20029;-65
2023/05/16 07:08:34;;;;;;;4.53;0.65;;;12.90;71.30;;;;;;5029634;28;20025;-71
2023/05/16 07:11:00;;;;;;;5.07;0.75;;;13.00;71.00;;;;;;5039295;28;20064;-70
2023/05/16 07:13:26;;;;;;;6.03;1.20;;;13.10;70.70;;;;;;5030371;28;20441;-69
2023/05/16 07:15:51;;;;;;;1.70;0.75;;;13.20;71.10;;;;;;5025939;28;20358;-70
2023/05/16 07:18:17;;;;;;;1.00;0.57;;;13.30;70.30;;;;;;5028824;28;20463;-62
2023/05/16 07:20:43;;;;;;;0.82;0.40;;;13.40;70.20;;;;;;5028841;28;20052;-62
2023/05/16 07:23:09;;;;;;;2.17;0.50;;;13.50;70.00;;;;;;5033430;28;20455;-64
2023/05/16 07:25:35;;;;;;;2.25;1.10;;;13.60;69.80;;;;;;5032631;28;20029;-65
2023/05/16 07:28:01;;;;;;;4.22;1.00;;;13.80;69.60;;;;;;5035265;28;20373;-65
2023/05/16 07:30:27;;;;;;;2.25;0.60;;;13.90;68.50;;;;;;5031066;28;20026;-66
2023/05/16 07:32:52;;;;;;;0.85;0.68;;;14.00;68.20;;;;;;5032880;28;20051;-65
2023/05/16 07:35:18;;;;;;;2.38;0.70;;;14.20;67.90;;;;;;5033025;28;20381;-65
2023/05/16 07:37:44;;;;;;;1.23;0.73;;;14.20;66.60;;;;;;5032561;28;20467;-65
2023/05/16 07:40:11;;;;;;;2.33;1.15;;;14.00;65.90;;;;;;5033443;28;20029;-73
2023/05/16 07:42:36;;;;;;;1.58;0.63;;;13.90;66.20;;;;;;5043092;28;20104;-72
2023/05/16 07:45:02;;;;;;;1.38;0.40;;;13.90;66.60;;;;;;5039991;28;20112;-65
2023/05/16 07:47:28;;;;;;;0.57;0.43;;;13.80;66.70;;;;;;5029360;28;20409;-74
2023/05/16 07:49:54;;;;;;;0.75;0.40;;;13.80;66.10;;;;;;5029545;28;20032;-73
2023/05/16 07:52:20;;;;;;;2.45;0.55;;;14.00;66.20;;;;;;5033916;28;20109;-65
2023/05/16 07:54:46;;;;;;;1.10;0.43;;;14.10;65.50;;;;;;5035336;28;20038;-66
2023/05/16 07:57:14;;;;;;;0.45;0.40;;;14.20;65.50;;;;;;5026969;28;20049;-66
2023/05/16 07:59:40;;;;;;;0.28;0.28;;;14.20;64.70;;;;;;5017575;28;20108;-65
2023/05/16 08:02:05;;;;;;;0.30;0.20;;;14.40;64.60;;;;;;5023854;28;20033;-72
2023/05/16 08:04:31;;;;;;;0.25;0.20;;;14.40;63.80;;;;;;5027255;28;20028;-64
2023/05/16 08:06:57;;;;;;;2.10;0.50;;;14.40;63.70;;;;;;5029381;28;20073;-65
2023/05/16 08:09:22;;;;;;;1.63;0.30;;;14.40;64.10;;;;;;5032944;28;20475;-72
2023/05/16 08:11:48;;;;;;;0.75;0.60;;;14.60;64.30;;;;;;5030527;28;20021;-73
2023/05/16 08:14:14;;;;;;;2.83;0.50;;;14.70;63.80;;;;;;5030610;28;20499;-65
2023/05/16 08:16:40;;;;;;;0.45;0.30;;;14.90;63.30;;;;;;5037838;28;20499;-64
2023/05/16 08:19:06;;;;;;;0.50;0.50;;;14.90;62.80;;;;;;5029731;28;20124;-64
2023/05/16 08:21:31;;;;;;;4.78;0.55;;;15.10;62.40;;;;;;5027401;28;20113;-62
2023/05/16 08:23:57;;;;;;;0.60;0.32;;;15.20;62.00;;;;;;5034938;28;20567;-70
2023/05/16 08:26:23;;;;;;;0.85;0.22;;;15.40;61.70;;;;;;5031350;28;20029;-72
2023/05/16 08:28:49;;;;;;;3.75;0.50;;;15.40;61.30;;;;;;5031126;28;20369;-72
2023/05/16 08:31:15;;;;;;;0.40;0.22;;;15.20;59.90;;;;;;5032465;28;20029;-71
2023/05/16 08:33:41;;;;;;;1.83;0.15;;;15.10;60.10;;;;;;5030567;28;20494;-69
2023/05/16 08:36:08;;;;;;;0.35;0.10;;;14.90;59.50;;;;;;5030047;28;20107;-61
2023/05/16 08:38:34;;;;;;;0.10;0.10;;;14.70;59.90;;;;;;5033144;28;20132;-61
2023/05/16 08:41:00;;;;;;;1.13;0.65;;;14.60;60.50;;;;;;5033745;28;20108;-60
2023/05/16 08:43:26;;;;;;;0.68;0.50;;;14.60;60.70;;;;;;5033878;28;20514;-65
2023/05/16 08:45:52;;;;;;;0.38;0.30;;;14.70;60.20;;;;;;5035413;28;20033;-66
2023/05/16 08:48:22;;;;;;;1.98;0.20;;;14.90;60.50;;;;;;5041961;28;20029;-65
2023/05/16 08:50:48;;;;;;;0.30;0.20;;;15.10;59.90;;;;;;5031511;28;20021;-64
2023/05/16 08:53:20;;;;;;;0.57;0.40;;;15.40;58.90;;;;;;5034149;28;20396;-63
2023/05/16 08:55:47;;;;;;;0.20;0.20;;;15.50;57.80;;;;;;5035280;28;20030;-69
2023/05/16 08:58:13;;;;;;;0.68;0.20;;;15.60;57.30;;;;;;5028839;28;20044;-63
2023/05/16 09:00:40;;;;;;;0.10;0.10;;;15.80;56.80;;;;;;5027559;28;20037;-68
2023/05/16 09:03:06;;;;;;;0.20;0.20;;;16.00;56.80;;;;;;5035285;28;20156;-68
2023/05/16 09:05:32;;;;;;;0.63;0.57;;;16.10;55.70;;;;;;5032806;28;20532;-68
2023/05/16 09:07:58;;;;;;;0.32;0.20;;;16.20;54.80;;;;;;5031664;28;20052;-65
2023/05/16 09:10:24;;;;;;;0.70;0.38;;;16.20;54.60;;;;;;5024522;28;20029;-65
2023/05/16 09:12:50;;;;;;;0.35;0.35;;;16.20;54.40;;;;;;5033748;28;20496;-63
2023/05/16 09:15:17;;;;;;;1.17;0.30;;;16.30;53.90;;;;;;5028814;28;20041;-64
2023/05/16 09:17:45;;;;;;;0.32;0.20;;;16.30;53.90;;;;;;5033461;28;20032;-69
2023/05/16 09:20:14;;;;;;;0.73;0.32;;;16.30;54.90;;;;;;5039770;28;20036;-69
2023/05/16 09:22:53;;;;;;;0.20;0.20;;;16.60;55.30;;;;;;5031955;28;20707;-69
2023/05/16 09:25:20;;;;;;;0.63;0.20;;;16.60;54.50;;;;;;5032347;28;20020;-70
2023/05/16 09:27:47;;;;;;;5.38;1.08;;;16.40;54.60;;;;;;5033091;28;20037;-62
2023/05/16 09:30:17;;;;;;;0.32;0.10;;;16.20;54.70;;;;;;5025118;28;20029;-62
2023/05/16 09:32:44;;;;;;;0.50;0.30;;;16.00;55.20;;;;;;5025985;28;20507;-62
2023/05/16 09:35:14;;;;;;;0.20;0.20;;;15.80;55.50;;;;;;5030183;28;20069;-62
2023/05/16 09:37:45;;;;;;;3.10;0.30;;;15.70;55.90;;;;;;5034419;28;20029;-63
2023/05/16 09:40:10;;;;;;;0.30;0.30;;;15.70;56.60;;;;;;5034870;28;20504;-62
2023/05/16 09:42:36;;;;;;;0.52;0.20;;;15.90;56.70;;;;;;5032023;28;20061;-62
2023/05/16 09:45:02;;;;;;;1.73;0.50;;;16.20;56.70;;;;;;5027852;28;20472;-62
2023/05/16 09:47:28;;;;;;;0.20;0.20;;;16.40;56.70;;;;;;5032876;28;20037;-69
2023/05/16 09:49:55;;;;;;;0.40;0.22;;;16.60;57.30;;;;;;5029661;28;20385;-69
2023/05/16 09:52:21;;;;;;;0.52;0.35;;;16.80;56.60;;;;;;5032851;28;20075;-69
2023/05/16 09:54:48;;;;;;;0.30;0.17;;;17.00;56.40;;;;;;5028221;28;20025;-62
2023/05/16 09:57:20;;;;;;;1.13;0.30;;;17.20;55.70;;;;;;5030609;28;20041;-69
2023/05/16 09:59:46;;;;;;;3.08;0.40;;;17.40;55.50;;;;;;5032433;28;20049;-63
2023/05/16 10:02:13;;;;;;;0.60;0.47;;;17.70;55.40;;;;;;5030362;28;20366;-61
2023/05/16 10:04:39;;;;;;;1.92;0.30;;;17.80;55.10;;;;;;5043005;28;20024;-62
2023/05/16 10:07:08;;;;;;;2.17;0.43;;;17.70;54.90;;;;;;5029855;28;20512;-62
2023/05/16 10:09:35;;;;;;;2.78;0.68;;;17.40;55.00;;;;;;5027449;28;20183;-62
2023/05/16 10:12:03;;;;;;;0.25;0.20;;;17.00;55.70;;;;;;5027515;28;20030;-63
2023/05/16 10:14:33;;;;;;;0.75;0.20;;;16.80;56.30;;;;;;5028384;28;20025;-63
2023/05/16 10:17:00;;;;;;;1.48;0.20;;;16.50;56.80;;;;;;5028825;28;20476;-63
2023/05/16 10:19:27;;;;;;;0.30;0.30;;;16.50;57.30;;;;;;5031418;28;20078;-62
2023/05/16 10:21:59;;;;;;;1.77;0.30;;;16.80;57.20;;;;;;5028570;28;20021;-62
2023/05/16 10:24:50;;;;;;;0.30;0.30;;;17.00;56.70;;;;;;5027669;28;20108;-62
2023/05/16 10:27:16;;;;;;;0.30;0.30;;;17.20;56.00;;;;;;5030079;28;20440;-60
2023/05/16 10:29:43;;;;;;;0.30;0.30;;;17.30;55.40;;;;;;5030594;28;20033;-62
2023/05/16 10:32:11;;;;;;;0.52;0.20;;;17.50;54.20;;;;;;5029794;28;20033;-62
2023/05/16 10:34:37;;;;;;;1.67;0.30;;;17.60;54.20;;;;;;5028294;28;20046;-63
2023/05/16 10:37:04;;;;;;;3.78;0.28;;;17.70;54.10;;;;;;5028101;28;20518;-62
2023/05/16 10:39:31;;;;;;;1.48;0.30;;;17.70;54.00;;;;;;5030387;28;20440;-62
2023/05/16 10:41:58;;;;;;;1.75;0.50;;;17.60;53.40;;;;;;5029205;28;20033;-62
2023/05/16 10:44:24;;;;;;;0.70;0.20;;;17.40;53.40;;;;;;5028529;28;20033;-69
2023/05/16 10:46:50;;;;;;;1.55;0.57;;;17.20;53.20;;;;;;5035041;28;20021;-69
2023/05/16 10:49:23;;;;;;;1.35;0.30;;;17.30;53.50;;;;;;5029079;28;20034;-69
2023/05/16 10:52:06;;;;;;;1.58;0.28;;;17.40;52.70;;;;;;5024927;28;20144;-69
2023/05/16 10:54:41;;;;;;;2.70;0.50;;;17.80;52.70;;;;;;5028231;28;20480;-69
2023/05/16 10:57:16;;;;;;;0.13;0.13;;;18.20;52.40;;;;;;5027740;28;20448;-69
2023/05/16 10:59:44;;;;;;;0.22;0.22;;;18.50;51.30;;;;;;5027331;28;20400;-69
2023/05/16 11:02:33;;;;;;;0.85;0.45;;;18.70;50.10;;;;;;5034380;28;20049;-69
2023/05/16 11:05:00;;;;;;;1.40;0.30;;;18.60;48.30;;;;;;5030516;28;20021;-69
2023/05/16 11:07:35;;;;;;;0.43;0.40;;;18.20;48.30;;;;;;5027913;28;20087;-69
2023/05/16 11:10:14;;;;;;;0.10;0.10;;;17.80;47.60;;;;;;5031802;28;20383;-69
2023/05/16 11:12:46;;;;;;;1.20;0.35;;;17.50;49.10;;;;;;5028252;28;20080;-69
2023/05/16 11:15:26;;;;;;;;;;;17.40;49.50;;;;;;5029688;28;20131;-69
2023/05/16 11:18:07;;;;;;;0.43;0.43;;;17.60;48.90;;;;;;5028574;28;19917;-69
2023/05/16 11:20:34;;;;;;;0.38;0.15;;;18.00;48.90;;;;;;5025582;28;20036;-70
2023/05/16 11:23:15;;;;;;;1.85;0.38;;;18.30;47.80;;;;;;5031206;28;20031;-69
2023/05/16 11:25:43;;;;;;;0.20;0.20;;;18.50;46.80;;;;;;5028707;28;20088;-63
2023/05/16 11:28:11;;;;;;;2.10;0.32;;;18.50;46.10;;;;;;5030153;28;20028;-69
2023/05/16 11:30:45;;;;;;;0.25;0.25;;;18.50;45.40;;;;;;5027821;28;20057;-69
2023/05/16 11:33:12;;;;;;;0.40;0.20;;;18.50;45.20;;;;;;5026220;28;20136;-69
2023/05/16 11:35:38;;;;;;;0.20;0.20;;;18.40;45.30;;;;;;5027838;28;20037;-62
2023/05/16 11:38:03;;;;;;;1.08;0.50;;;18.20;45.80;;;;;;5028962;28;20033;-62
2023/05/16 11:40:29;;;;;;;0.80;0.22;;;18.10;46.20;;;;;;5030699;28;20124;-63
2023/05/16 11:42:59;;;;;;;2.10;0.70;;;17.90;46.30;;;;;;5030768;28;20026;-60
2023/05/16 11:45:26;;;;;;;0.40;0.40;;;17.80;47.00;;;;;;5009967;28;20025;-60
2023/05/16 11:47:51;;;;;;;0.50;0.50;;;18.10;47.80;;;;;;5028027;28;20393;-60
2023/05/16 11:50:25;;;;;;;0.38;0.30;;;18.40;47.00;;;;;;5030209;28;20088;-62
2023/05/16 11:52:56;;;;;;;0.93;0.68;;;18.60;46.70;;;;;;5033277;28;20033;-61
2023/05/16 11:55:23;;;;;;;0.93;0.22;;;18.90;44.90;;;;;;5028498;28;20087;-63
2023/05/16 11:57:52;;;;;;;1.08;0.45;;;19.00;44.60;;;;;;5034555;28;20389;-69
2023/05/16 12:00:19;;;;;;;1.10;0.68;;;19.10;43.70;;;;;;5028501;28;20041;-69
2023/05/16 12:02:48;;;;;;;0.45;0.40;;;19.10;44.40;;;;;;5027816;28;20028;-69
2023/05/16 12:05:16;;;;;;;0.28;0.28;;;18.80;44.20;;;;;;5018759;28;21414;-67
2023/05/16 12:07:45;;;;;;;1.13;0.50;;;18.70;44.70;;;;;;5032178;28;20057;-63
2023/05/16 12:10:15;;;;;;;0.63;0.50;;;18.60;44.80;;;;;;5029321;28;20477;-63
2023/05/16 12:12:47;;;;;;;2.67;0.82;;;18.30;44.10;;;;;;5031488;28;20037;-62
2023/05/16 12:15:14;;;;;;;3.47;0.52;;;18.20;44.90;;;;;;5032186;28;20029;-63
2023/05/16 12:17:41;;;;;;;2.03;0.60;;;18.10;45.20;;;;;;5027446;28;20028;-62
2023/05/16 12:20:15;;;;;;;0.30;0.20;;;18.10;45.30;;;;;;5029881;28;20037;-69
2023/05/16 12:22:45;;;;;;;0.57;0.40;;;17.90;45.40;;;;;;5025490;28;20031;-69
2023/05/16 12:25:31;;;;;;;0.50;0.20;;;17.80;46.10;;;;;;5028899;28;20083;-62
2023/05/16 12:27:59;;;;;;;1.23;0.65;;;17.80;46.30;;;;;;5027441;28;20480;-70
2023/05/16 12:30:26;;;;;;;1.13;0.45;;;17.80;46.40;;;;;;5029382;28;20033;-63
2023/05/16 12:32:59;;;;;;;0.30;0.30;;;17.80;46.40;;;;;;5028993;28;20029;-63
2023/05/16 12:35:29;;;;;;;0.20;0.20;;;17.80;46.80;;;;;;5036394;28;20507;-69
2023/05/16 12:37:55;;;;;;;0.32;0.20;;;17.80;47.00;;;;;;5028448;28;20026;-63
2023/05/16 12:40:22;;;;;;;1.00;0.30;;;17.80;46.60;;;;;;5025376;28;20039;-62
2023/05/16 12:42:52;;;;;;;0.75;0.57;;;17.60;46.40;;;;;;5030199;28;20065;-69
2023/05/16 12:45:18;;;;;;;1.35;0.30;;;17.50;46.90;;;;;;5027286;28;20550;-69
2023/05/16 12:47:45;;;;;;;0.38;0.35;;;17.40;47.50;;;;;;5032787;28;20469;-62
2023/05/16 12:50:13;;;;;;;0.40;0.40;;;17.30;47.10;;;;;;5023678;28;20538;-62